sensor_id;sensor_type;location;lat;lon;timestamp;pressure;altitude;pressure_sealevel;temperature;humidity
70198;BME280;57582;-34.876;138.628;2024-01-16T00:02:06;100069;;;33.55;37.69
70198;BME280;57582;-34.876;138.628;2024-01-16T00:05:06;100059;;;33.80;37.09
70198;BME280;57582;-34.876;138.628;2024-01-16T00:08:06;100057;;;34.03;36.40
70198;BME280;57582;-34.876;138.628;2024-01-16T00:11:06;100050;;;34.17;35.18
70198;BME280;57582;-34.876;138.628;2024-01-16T00:14:06;100060;;;34.29;33.78
70198;BME280;57582;-34.876;138.628;2024-01-16T00:17:07;100063;;;34.44;33.81
70198;BME280;57582;-34.876;138.628;2024-01-16T00:20:06;100060;;;34.29;33.15
70198;BME280;57582;-34.876;138.628;2024-01-16T00:23:06;100059;;;34.34;34.16
70198;BME280;57582;-34.876;138.628;2024-01-16T00:26:06;100069;;;34.50;34.70
70198;BME280;57582;-34.876;138.628;2024-01-16T00:29:06;100065;;;34.54;34.38
70198;BME280;57582;-34.876;138.628;2024-01-16T00:32:06;100065;;;34.61;33.67
70198;BME280;57582;-34.876;138.628;2024-01-16T00:35:06;100066;;;34.67;33.63
70198;BME280;57582;-34.876;138.628;2024-01-16T00:38:06;100064;;;34.87;33.59
70198;BME280;57582;-34.876;138.628;2024-01-16T00:41:07;100067;;;34.94;32.91
70198;BME280;57582;-34.876;138.628;2024-01-16T00:44:06;100065;;;35.01;32.10
70198;BME280;57582;-34.876;138.628;2024-01-16T00:47:06;100065;;;35.09;33.04
70198;BME280;57582;-34.876;138.628;2024-01-16T00:50:06;100066;;;35.26;33.16
70198;BME280;57582;-34.876;138.628;2024-01-16T00:53:07;100063;;;35.41;32.47
70198;BME280;57582;-34.876;138.628;2024-01-16T00:56:06;100061;;;35.24;32.71
70198;BME280;57582;-34.876;138.628;2024-01-16T00:59:06;100050;;;35.24;32.45
70198;BME280;57582;-34.876;138.628;2024-01-16T01:02:06;100052;;;35.41;32.70
70198;BME280;57582;-34.876;138.628;2024-01-16T01:05:08;100056;;;35.40;32.09
70198;BME280;57582;-34.876;138.628;2024-01-16T01:08:06;100054;;;35.40;32.39
70198;BME280;57582;-34.876;138.628;2024-01-16T01:11:06;100047;;;35.41;33.05
70198;BME280;57582;-34.876;138.628;2024-01-16T01:14:06;100044;;;35.40;32.14
70198;BME280;57582;-34.876;138.628;2024-01-16T01:17:07;100043;;;35.46;33.16
70198;BME280;57582;-34.876;138.628;2024-01-16T01:20:06;100041;;;35.57;32.67
70198;BME280;57582;-34.876;138.628;2024-01-16T01:23:06;100042;;;35.66;32.43
70198;BME280;57582;-34.876;138.628;2024-01-16T01:26:06;100044;;;35.78;32.65
70198;BME280;57582;-34.876;138.628;2024-01-16T01:29:08;100044;;;35.83;31.78
70198;BME280;57582;-34.876;138.628;2024-01-16T01:32:06;100040;;;35.66;32.34
70198;BME280;57582;-34.876;138.628;2024-01-16T01:35:06;100041;;;35.76;31.23
70198;BME280;57582;-34.876;138.628;2024-01-16T01:38:06;100040;;;35.91;31.28
70198;BME280;57582;-34.876;138.628;2024-01-16T01:41:06;100036;;;36.00;31.33
70198;BME280;57582;-34.876;138.628;2024-01-16T01:44:06;100040;;;35.92;32.06
70198;BME280;57582;-34.876;138.628;2024-01-16T01:47:06;100041;;;35.98;32.00
70198;BME280;57582;-34.876;138.628;2024-01-16T01:50:06;100043;;;35.93;32.92
70198;BME280;57582;-34.876;138.628;2024-01-16T01:53:06;100040;;;35.89;33.61
70198;BME280;57582;-34.876;138.628;2024-01-16T01:56:07;100047;;;35.87;33.97
70198;BME280;57582;-34.876;138.628;2024-01-16T01:59:06;100048;;;35.73;33.96
70198;BME280;57582;-34.876;138.628;2024-01-16T02:02:06;100048;;;35.70;32.43
70198;BME280;57582;-34.876;138.628;2024-01-16T02:05:10;100058;;;35.55;33.83
70198;BME280;57582;-34.876;138.628;2024-01-16T02:08:06;100057;;;35.30;33.61
70198;BME280;57582;-34.876;138.628;2024-01-16T02:11:06;100056;;;35.11;34.58
70198;BME280;57582;-34.876;138.628;2024-01-16T02:14:06;100049;;;35.12;34.79
70198;BME280;57582;-34.876;138.628;2024-01-16T02:17:06;100054;;;35.15;34.32
70198;BME280;57582;-34.876;138.628;2024-01-16T02:20:06;100047;;;34.97;34.12
70198;BME280;57582;-34.876;138.628;2024-01-16T02:23:06;100047;;;34.98;34.05
70198;BME280;57582;-34.876;138.628;2024-01-16T02:41:18;100019;;;34.92;33.03
70198;BME280;57582;-34.876;138.628;2024-01-16T02:43:08;100046;;;35.20;33.67
70198;BME280;57582;-34.876;138.628;2024-01-16T02:46:08;100045;;;35.35;33.12
70198;BME280;57582;-34.876;138.628;2024-01-16T02:49:08;100047;;;35.29;33.55
70198;BME280;57582;-34.876;138.628;2024-01-16T02:52:08;100038;;;35.05;33.73
70198;BME280;57582;-34.876;138.628;2024-01-16T02:55:08;100034;;;34.83;34.32
70198;BME280;57582;-34.876;138.628;2024-01-16T02:58:08;100019;;;34.66;34.33
70198;BME280;57582;-34.876;138.628;2024-01-16T03:01:08;100013;;;34.75;34.01
70198;BME280;57582;-34.876;138.628;2024-01-16T03:04:11;100002;;;34.40;32.73
70198;BME280;57582;-34.876;138.628;2024-01-16T03:07:08;100016;;;34.25;32.78
70198;BME280;57582;-34.876;138.628;2024-01-16T03:10:08;100008;;;34.21;32.40
70198;BME280;57582;-34.876;138.628;2024-01-16T03:13:08;100002;;;34.26;33.09
70198;BME280;57582;-34.876;138.628;2024-01-16T03:16:10;100002;;;34.33;33.80
70198;BME280;57582;-34.876;138.628;2024-01-16T03:19:08;100002;;;34.48;32.46
70198;BME280;57582;-34.876;138.628;2024-01-16T03:22:08;99998;;;34.39;30.88
70198;BME280;57582;-34.876;138.628;2024-01-16T03:25:08;100000;;;34.59;31.02
70198;BME280;57582;-34.876;138.628;2024-01-16T03:28:10;99988;;;34.69;29.05
70198;BME280;57582;-34.876;138.628;2024-01-16T03:31:08;99994;;;34.55;28.26
70198;BME280;57582;-34.876;138.628;2024-01-16T03:34:08;99983;;;34.61;28.56
70198;BME280;57582;-34.876;138.628;2024-01-16T03:37:08;99985;;;34.69;26.94
70198;BME280;57582;-34.876;138.628;2024-01-16T03:40:10;99988;;;34.64;27.43
70198;BME280;57582;-34.876;138.628;2024-01-16T03:43:08;99986;;;34.62;27.45
70198;BME280;57582;-34.876;138.628;2024-01-16T03:46:10;99978;;;34.78;28.05
70198;BME280;57582;-34.876;138.628;2024-01-16T03:49:08;99980;;;34.87;24.55
70198;BME280;57582;-34.876;138.628;2024-01-16T03:52:11;99967;;;34.99;26.16
70198;BME280;57582;-34.876;138.628;2024-01-16T03:55:08;99965;;;35.10;23.40
70198;BME280;57582;-34.876;138.628;2024-01-16T03:58:08;99961;;;35.18;23.89
70198;BME280;57582;-34.876;138.628;2024-01-16T04:01:08;99964;;;35.12;24.00
70198;BME280;57582;-34.876;138.628;2024-01-16T04:04:09;99947;;;35.04;23.85
70198;BME280;57582;-34.876;138.628;2024-01-16T04:07:08;99939;;;35.13;24.69
70198;BME280;57582;-34.876;138.628;2024-01-16T04:10:08;99933;;;35.14;24.08
70198;BME280;57582;-34.876;138.628;2024-01-16T04:13:09;99929;;;34.96;25.19
70198;BME280;57582;-34.876;138.628;2024-01-16T04:16:11;99939;;;34.96;25.09
70198;BME280;57582;-34.876;138.628;2024-01-16T04:19:08;99930;;;34.94;26.44
70198;BME280;57582;-34.876;138.628;2024-01-16T04:22:08;99930;;;35.04;26.36
70198;BME280;57582;-34.876;138.628;2024-01-16T04:25:08;99922;;;35.06;27.26
70198;BME280;57582;-34.876;138.628;2024-01-16T04:28:09;99937;;;35.03;26.60
70198;BME280;57582;-34.876;138.628;2024-01-16T04:31:08;99920;;;35.15;26.32
70198;BME280;57582;-34.876;138.628;2024-01-16T04:34:08;99919;;;35.23;28.55
70198;BME280;57582;-34.876;138.628;2024-01-16T04:37:08;99913;;;35.24;25.61
70198;BME280;57582;-34.876;138.628;2024-01-16T04:40:09;99910;;;35.12;26.07
70198;BME280;57582;-34.876;138.628;2024-01-16T04:43:08;99905;;;35.05;27.34
70198;BME280;57582;-34.876;138.628;2024-01-16T04:46:08;99900;;;35.08;27.85
70198;BME280;57582;-34.876;138.628;2024-01-16T04:49:08;99897;;;35.11;25.55
70198;BME280;57582;-34.876;138.628;2024-01-16T04:52:09;99894;;;35.09;25.73
70198;BME280;57582;-34.876;138.628;2024-01-16T04:55:08;99894;;;35.00;25.88
70198;BME280;57582;-34.876;138.628;2024-01-16T04:58:08;99879;;;34.96;26.73
70198;BME280;57582;-34.876;138.628;2024-01-16T05:01:08;99875;;;35.06;26.40
70198;BME280;57582;-34.876;138.628;2024-01-16T05:04:11;99876;;;35.15;26.80
70198;BME280;57582;-34.876;138.628;2024-01-16T05:07:08;99866;;;35.26;26.47
70198;BME280;57582;-34.876;138.628;2024-01-16T05:10:10;99870;;;35.27;26.82
70198;BME280;57582;-34.876;138.628;2024-01-16T05:13:08;99868;;;35.29;26.78
70198;BME280;57582;-34.876;138.628;2024-01-16T05:16:09;99864;;;35.35;27.12
70198;BME280;57582;-34.876;138.628;2024-01-16T05:19:08;99858;;;35.39;26.79
70198;BME280;57582;-34.876;138.628;2024-01-16T05:22:09;99851;;;35.31;27.16
70198;BME280;57582;-34.876;138.628;2024-01-16T05:25:08;99847;;;35.45;27.60
70198;BME280;57582;-34.876;138.628;2024-01-16T05:28:09;99845;;;35.69;26.86
70198;BME280;57582;-34.876;138.628;2024-01-16T05:31:08;99843;;;35.74;26.84
70198;BME280;57582;-34.876;138.628;2024-01-16T05:34:09;99841;;;35.73;26.07
70198;BME280;57582;-34.876;138.628;2024-01-16T05:37:08;99827;;;35.63;26.18
70198;BME280;57582;-34.876;138.628;2024-01-16T05:40:10;99830;;;35.53;27.22
70198;BME280;57582;-34.876;138.628;2024-01-16T05:43:08;99821;;;35.57;26.66
70198;BME280;57582;-34.876;138.628;2024-01-16T05:46:08;99817;;;35.59;24.94
70198;BME280;57582;-34.876;138.628;2024-01-16T05:49:08;99815;;;35.57;25.93
70198;BME280;57582;-34.876;138.628;2024-01-16T05:52:11;99816;;;35.71;24.93
70198;BME280;57582;-34.876;138.628;2024-01-16T05:55:08;99809;;;35.64;25.56
70198;BME280;57582;-34.876;138.628;2024-01-16T05:58:08;99809;;;35.57;24.75
70198;BME280;57582;-34.876;138.628;2024-01-16T06:01:08;99801;;;35.66;27.04
70198;BME280;57582;-34.876;138.628;2024-01-16T06:04:11;99810;;;35.51;27.84
70198;BME280;57582;-34.876;138.628;2024-01-16T06:07:08;99805;;;35.37;26.86
70198;BME280;57582;-34.876;138.628;2024-01-16T06:10:11;99811;;;35.25;25.84
70198;BME280;57582;-34.876;138.628;2024-01-16T06:13:08;99797;;;35.39;25.51
70198;BME280;57582;-34.876;138.628;2024-01-16T06:16:09;99792;;;35.60;25.97
70198;BME280;57582;-34.876;138.628;2024-01-16T06:19:08;99797;;;35.98;24.86
70198;BME280;57582;-34.876;138.628;2024-01-16T06:22:08;99811;;;36.10;22.53
70198;BME280;57582;-34.876;138.628;2024-01-16T06:25:08;99823;;;36.03;22.52
70198;BME280;57582;-34.876;138.628;2024-01-16T06:28:10;99826;;;35.69;23.07
70198;BME280;57582;-34.876;138.628;2024-01-16T06:31:10;99824;;;35.64;24.76
70198;BME280;57582;-34.876;138.628;2024-01-16T06:34:08;99829;;;35.66;26.92
70198;BME280;57582;-34.876;138.628;2024-01-16T06:37:08;99826;;;35.47;29.61
70198;BME280;57582;-34.876;138.628;2024-01-16T06:40:10;99825;;;35.11;30.22
70198;BME280;57582;-34.876;138.628;2024-01-16T06:43:08;99833;;;34.85;30.58
70198;BME280;57582;-34.876;138.628;2024-01-16T06:46:09;99821;;;34.66;30.72
70198;BME280;57582;-34.876;138.628;2024-01-16T06:49:08;99816;;;34.38;31.33
70198;BME280;57582;-34.876;138.628;2024-01-16T06:52:09;99808;;;34.15;31.68
70198;BME280;57582;-34.876;138.628;2024-01-16T06:55:08;99803;;;34.01;32.69
70198;BME280;57582;-34.876;138.628;2024-01-16T06:58:08;99802;;;34.14;32.15
70198;BME280;57582;-34.876;138.628;2024-01-16T07:04:10;99784;;;34.53;31.60
70198;BME280;57582;-34.876;138.628;2024-01-16T07:07:08;99793;;;34.84;30.08
70198;BME280;57582;-34.876;138.628;2024-01-16T07:10:08;99806;;;34.93;28.96
70198;BME280;57582;-34.876;138.628;2024-01-16T07:13:08;99801;;;35.09;28.77
70198;BME280;57582;-34.876;138.628;2024-01-16T07:16:11;99799;;;35.11;29.00
70198;BME280;57582;-34.876;138.628;2024-01-16T07:19:08;99802;;;35.18;29.16
70198;BME280;57582;-34.876;138.628;2024-01-16T07:22:08;99808;;;35.22;28.78
70198;BME280;57582;-34.876;138.628;2024-01-16T07:25:09;99819;;;35.25;29.38
70198;BME280;57582;-34.876;138.628;2024-01-16T07:28:10;99816;;;35.28;29.77
70198;BME280;57582;-34.876;138.628;2024-01-16T07:31:08;99822;;;34.96;29.95
70198;BME280;57582;-34.876;138.628;2024-01-16T07:34:08;99824;;;34.49;30.14
70198;BME280;57582;-34.876;138.628;2024-01-16T07:37:08;99822;;;34.35;30.51
70198;BME280;57582;-34.876;138.628;2024-01-16T07:40:11;99829;;;34.17;31.15
70198;BME280;57582;-34.876;138.628;2024-01-16T07:43:09;99817;;;33.98;31.07
70198;BME280;57582;-34.876;138.628;2024-01-16T07:46:09;99831;;;33.94;31.27
70198;BME280;57582;-34.876;138.628;2024-01-16T07:49:09;99848;;;33.74;30.66
70198;BME280;57582;-34.876;138.628;2024-01-16T07:52:09;99850;;;33.64;31.23
70198;BME280;57582;-34.876;138.628;2024-01-16T07:55:09;99834;;;33.79;31.29
70198;BME280;57582;-34.876;138.628;2024-01-16T07:58:10;99842;;;33.79;31.82
70198;BME280;57582;-34.876;138.628;2024-01-16T08:01:09;99852;;;33.73;31.81
70198;BME280;57582;-34.876;138.628;2024-01-16T08:04:11;99843;;;33.71;32.19
70198;BME280;57582;-34.876;138.628;2024-01-16T08:07:09;99846;;;33.62;32.28
70198;BME280;57582;-34.876;138.628;2024-01-16T08:10:09;99843;;;33.45;33.47
70198;BME280;57582;-34.876;138.628;2024-01-16T08:13:09;99840;;;33.58;33.28
70198;BME280;57582;-34.876;138.628;2024-01-16T08:16:09;99843;;;33.48;33.41
70198;BME280;57582;-34.876;138.628;2024-01-16T08:19:09;99848;;;33.34;33.58
70198;BME280;57582;-34.876;138.628;2024-01-16T08:22:09;99847;;;33.36;33.38
70198;BME280;57582;-34.876;138.628;2024-01-16T08:25:09;99861;;;33.35;33.55
70198;BME280;57582;-34.876;138.628;2024-01-16T08:28:11;99869;;;33.42;33.83
70198;BME280;57582;-34.876;138.628;2024-01-16T08:31:09;99861;;;33.44;34.08
70198;BME280;57582;-34.876;138.628;2024-01-16T08:34:09;99868;;;33.38;34.37
70198;BME280;57582;-34.876;138.628;2024-01-16T08:37:09;99871;;;33.48;34.27
70198;BME280;57582;-34.876;138.628;2024-01-16T08:40:10;99871;;;33.74;34.29
70198;BME280;57582;-34.876;138.628;2024-01-16T08:43:09;99878;;;33.82;34.22
70198;BME280;57582;-34.876;138.628;2024-01-16T08:46:09;99886;;;33.59;34.49
70198;BME280;57582;-34.876;138.628;2024-01-16T08:49:09;99892;;;33.67;34.80
70198;BME280;57582;-34.876;138.628;2024-01-16T08:52:09;99899;;;32.95;35.77
70198;BME280;57582;-34.876;138.628;2024-01-16T08:55:09;99906;;;32.42;36.94
70198;BME280;57582;-34.876;138.628;2024-01-16T08:58:09;99911;;;31.86;37.60
70198;BME280;57582;-34.876;138.628;2024-01-16T09:01:09;99914;;;31.77;37.56
70198;BME280;57582;-34.876;138.628;2024-01-16T09:04:09;99914;;;32.15;36.40
70198;BME280;57582;-34.876;138.628;2024-01-16T09:07:09;99922;;;32.22;35.47
70198;BME280;57582;-34.876;138.628;2024-01-16T09:10:09;99930;;;32.33;35.25
70198;BME280;57582;-34.876;138.628;2024-01-16T09:13:09;99932;;;32.57;34.84
70198;BME280;57582;-34.876;138.628;2024-01-16T09:16:09;99942;;;32.84;34.55
70198;BME280;57582;-34.876;138.628;2024-01-16T09:19:09;99944;;;32.92;31.93
70198;BME280;57582;-34.876;138.628;2024-01-16T09:22:09;99937;;;33.01;30.69
70198;BME280;57582;-34.876;138.628;2024-01-16T09:25:09;99947;;;32.92;28.99
70198;BME280;57582;-34.876;138.628;2024-01-16T09:28:09;99940;;;32.34;34.31
70198;BME280;57582;-34.876;138.628;2024-01-16T09:31:09;99943;;;32.41;34.61
70198;BME280;57582;-34.876;138.628;2024-01-16T09:34:09;99951;;;32.26;34.68
70198;BME280;57582;-34.876;138.628;2024-01-16T09:37:09;99950;;;31.20;36.38
70198;BME280;57582;-34.876;138.628;2024-01-16T09:40:10;99950;;;31.15;36.43
70198;BME280;57582;-34.876;138.628;2024-01-16T09:43:09;99962;;;30.87;36.87
70198;BME280;57582;-34.876;138.628;2024-01-16T09:46:09;99973;;;30.84;36.71
70198;BME280;57582;-34.876;138.628;2024-01-16T09:49:09;99985;;;30.86;36.79
70198;BME280;57582;-34.876;138.628;2024-01-16T09:52:11;99997;;;30.83;36.58
70198;BME280;57582;-34.876;138.628;2024-01-16T09:55:09;100005;;;31.00;36.40
70198;BME280;57582;-34.876;138.628;2024-01-16T09:58:09;100013;;;31.34;36.25
70198;BME280;57582;-34.876;138.628;2024-01-16T10:01:09;100034;;;31.66;35.61
70198;BME280;57582;-34.876;138.628;2024-01-16T10:04:09;100050;;;31.86;35.74
70198;BME280;57582;-34.876;138.628;2024-01-16T10:07:10;100079;;;31.59;37.34
70198;BME280;57582;-34.876;138.628;2024-01-16T10:21:28;100140;;;30.61;36.99
70198;BME280;57582;-34.876;138.628;2024-01-16T10:24:28;100152;;;30.30;37.33
70198;BME280;57582;-34.876;138.628;2024-01-16T10:27:28;100158;;;30.13;37.38
70198;BME280;57582;-34.876;138.628;2024-01-16T10:30:28;100169;;;30.17;37.35
70198;BME280;57582;-34.876;138.628;2024-01-16T10:33:28;100176;;;30.14;37.42
70198;BME280;57582;-34.876;138.628;2024-01-16T10:36:28;100178;;;30.12;37.22
70198;BME280;57582;-34.876;138.628;2024-01-16T10:39:28;100175;;;29.85;36.91
70198;BME280;57582;-34.876;138.628;2024-01-16T10:42:28;100156;;;29.51;37.16
70198;BME280;57582;-34.876;138.628;2024-01-16T10:45:29;100157;;;29.34;37.52
70198;BME280;57582;-34.876;138.628;2024-01-16T10:48:28;100151;;;29.41;37.26
70198;BME280;57582;-34.876;138.628;2024-01-16T10:51:28;100164;;;29.30;36.03
70198;BME280;57582;-34.876;138.628;2024-01-16T10:54:28;100176;;;29.07;32.80
70198;BME280;57582;-34.876;138.628;2024-01-16T10:57:29;100191;;;28.36;30.38
70198;BME280;57582;-34.876;138.628;2024-01-16T11:00:28;100173;;;27.63;31.55
70198;BME280;57582;-34.876;138.628;2024-01-16T11:03:31;100175;;;27.05;30.95
70198;BME280;57582;-34.876;138.628;2024-01-16T11:06:28;100171;;;26.99;30.50
70198;BME280;57582;-34.876;138.628;2024-01-16T11:09:28;100163;;;26.97;31.06
70198;BME280;57582;-34.876;138.628;2024-01-16T11:12:29;100157;;;27.07;30.43
70198;BME280;57582;-34.876;138.628;2024-01-16T11:15:28;100155;;;26.79;29.25
70198;BME280;57582;-34.876;138.628;2024-01-16T11:18:28;100150;;;26.89;28.79
70198;BME280;57582;-34.876;138.628;2024-01-16T11:21:28;100145;;;27.13;28.67
70198;BME280;57582;-34.876;138.628;2024-01-16T11:24:28;100148;;;27.22;28.94
70198;BME280;57582;-34.876;138.628;2024-01-16T11:27:28;100144;;;27.23;28.64
70198;BME280;57582;-34.876;138.628;2024-01-16T11:30:29;100134;;;27.41;28.00
70198;BME280;57582;-34.876;138.628;2024-01-16T11:36:46;100137;;;27.47;26.94
70198;BME280;57582;-34.876;138.628;2024-01-16T11:39:28;100138;;;27.51;26.89
70198;BME280;57582;-34.876;138.628;2024-01-16T11:42:28;100153;;;27.55;26.57
70198;BME280;57582;-34.876;138.628;2024-01-16T11:48:28;100147;;;27.72;26.13
70198;BME280;57582;-34.876;138.628;2024-01-16T11:51:28;100141;;;27.65;26.02
70198;BME280;57582;-34.876;138.628;2024-01-16T11:54:28;100138;;;27.67;26.80
70198;BME280;57582;-34.876;138.628;2024-01-16T11:57:51;100135;;;27.88;26.24
70198;BME280;57582;-34.876;138.628;2024-01-16T12:00:28;100140;;;28.15;25.97
70198;BME280;57582;-34.876;138.628;2024-01-16T12:03:28;100137;;;28.40;25.83
70198;BME280;57582;-34.876;138.628;2024-01-16T12:06:28;100143;;;28.61;25.35
70198;BME280;57582;-34.876;138.628;2024-01-16T12:09:28;100141;;;28.82;25.08
70198;BME280;57582;-34.876;138.628;2024-01-16T12:12:28;100142;;;28.95;24.77
70198;BME280;57582;-34.876;138.628;2024-01-16T12:15:28;100133;;;29.08;24.65
70198;BME280;57582;-34.876;138.628;2024-01-16T12:18:28;100129;;;29.19;24.23
70198;BME280;57582;-34.876;138.628;2024-01-16T12:21:28;100127;;;29.26;24.07
70198;BME280;57582;-34.876;138.628;2024-01-16T12:24:28;100121;;;29.32;24.03
70198;BME280;57582;-34.876;138.628;2024-01-16T12:27:28;100116;;;29.38;23.99
70198;BME280;57582;-34.876;138.628;2024-01-16T12:30:29;100108;;;29.38;23.81
70198;BME280;57582;-34.876;138.628;2024-01-16T12:33:29;100112;;;29.41;24.32
70198;BME280;57582;-34.876;138.628;2024-01-16T12:36:28;100109;;;29.42;24.18
70198;BME280;57582;-34.876;138.628;2024-01-16T12:39:28;100115;;;29.37;23.80
70198;BME280;57582;-34.876;138.628;2024-01-16T12:42:28;100126;;;29.26;23.34
70198;BME280;57582;-34.876;138.628;2024-01-16T12:45:30;100144;;;29.03;24.23
70198;BME280;57582;-34.876;138.628;2024-01-16T12:48:28;100166;;;28.74;26.00
70198;BME280;57582;-34.876;138.628;2024-01-16T12:51:28;100200;;;28.42;29.92
70198;BME280;57582;-34.876;138.628;2024-01-16T12:54:28;100240;;;28.05;31.99
70198;BME280;57582;-34.876;138.628;2024-01-16T12:57:29;100278;;;27.39;32.86
70198;BME280;57582;-34.876;138.628;2024-01-16T13:00:28;100312;;;27.33;38.65
70198;BME280;57582;-34.876;138.628;2024-01-16T13:03:28;100314;;;26.85;39.03
70198;BME280;57582;-34.876;138.628;2024-01-16T13:06:28;100317;;;26.36;38.68
70198;BME280;57582;-34.876;138.628;2024-01-16T13:09:28;100319;;;26.08;38.89
70198;BME280;57582;-34.876;138.628;2024-01-16T13:12:28;100303;;;26.08;39.38
70198;BME280;57582;-34.876;138.628;2024-01-16T13:15:28;100304;;;26.15;39.50
70198;BME280;57582;-34.876;138.628;2024-01-16T13:18:28;100318;;;25.97;40.04
70198;BME280;57582;-34.876;138.628;2024-01-16T13:21:30;100294;;;25.91;40.61
70198;BME280;57582;-34.876;138.628;2024-01-16T13:24:28;100285;;;25.98;41.27
70198;BME280;57582;-34.876;138.628;2024-01-16T13:27:28;100278;;;26.21;41.50
70198;BME280;57582;-34.876;138.628;2024-01-16T13:30:28;100276;;;26.25;40.24
70198;BME280;57582;-34.876;138.628;2024-01-16T13:33:28;100266;;;26.22;40.63
70198;BME280;57582;-34.876;138.628;2024-01-16T13:47:14;100232;;;26.52;43.26
70198;BME280;57582;-34.876;138.628;2024-01-16T13:49:20;100243;;;26.64;42.50
70198;BME280;57582;-34.876;138.628;2024-01-16T13:52:20;100244;;;26.54;42.07
70198;BME280;57582;-34.876;138.628;2024-01-16T13:55:20;100234;;;26.43;41.99
70198;BME280;57582;-34.876;138.628;2024-01-16T13:58:21;100228;;;26.40;42.18
70198;BME280;57582;-34.876;138.628;2024-01-16T14:01:20;100237;;;26.26;42.75
70198;BME280;57582;-34.876;138.628;2024-01-16T14:04:20;100237;;;26.15;43.80
70198;BME280;57582;-34.876;138.628;2024-01-16T14:07:20;100216;;;25.98;43.28
70198;BME280;57582;-34.876;138.628;2024-01-16T14:10:22;100202;;;25.71;45.57
70198;BME280;57582;-34.876;138.628;2024-01-16T14:13:20;100215;;;25.58;44.72
70198;BME280;57582;-34.876;138.628;2024-01-16T14:16:20;100218;;;25.56;44.51
70198;BME280;57582;-34.876;138.628;2024-01-16T14:19:20;100232;;;25.59;44.13
70198;BME280;57582;-34.876;138.628;2024-01-16T14:22:22;100235;;;25.66;43.38
70198;BME280;57582;-34.876;138.628;2024-01-16T14:25:20;100238;;;25.68;44.11
70198;BME280;57582;-34.876;138.628;2024-01-16T14:28:20;100243;;;25.55;44.89
70198;BME280;57582;-34.876;138.628;2024-01-16T14:31:20;100267;;;25.57;45.92
70198;BME280;57582;-34.876;138.628;2024-01-16T14:34:21;100279;;;25.43;46.43
70198;BME280;57582;-34.876;138.628;2024-01-16T14:37:20;100282;;;25.58;45.54
70198;BME280;57582;-34.876;138.628;2024-01-16T14:40:20;100274;;;25.70;44.91
70198;BME280;57582;-34.876;138.628;2024-01-16T14:43:20;100272;;;25.77;42.47
70198;BME280;57582;-34.876;138.628;2024-01-16T14:46:21;100288;;;25.85;44.36
70198;BME280;57582;-34.876;138.628;2024-01-16T14:49:20;100285;;;25.84;44.86
70198;BME280;57582;-34.876;138.628;2024-01-16T14:52:21;100248;;;25.64;46.61
70198;BME280;57582;-34.876;138.628;2024-01-16T14:55:20;100225;;;25.35;48.06
70198;BME280;57582;-34.876;138.628;2024-01-16T14:58:21;100209;;;25.22;46.82
70198;BME280;57582;-34.876;138.628;2024-01-16T15:01:20;100198;;;24.73;48.27
70198;BME280;57582;-34.876;138.628;2024-01-16T15:04:20;100183;;;24.59;49.94
70198;BME280;57582;-34.876;138.628;2024-01-16T15:13:22;100174;;;23.51;50.99
70198;BME280;57582;-34.876;138.628;2024-01-16T15:16:20;100174;;;23.48;52.02
70198;BME280;57582;-34.876;138.628;2024-01-16T15:29:41;100175;;;24.56;47.64
70198;BME280;57582;-34.876;138.628;2024-01-16T15:32:09;100178;;;24.68;46.55
70198;BME280;57582;-34.876;138.628;2024-01-16T15:35:09;100187;;;24.85;47.02
70198;BME280;57582;-34.876;138.628;2024-01-16T15:38:09;100192;;;24.81;47.10
70198;BME280;57582;-34.876;138.628;2024-01-16T15:41:09;100197;;;24.64;47.25
70198;BME280;57582;-34.876;138.628;2024-01-16T15:44:09;100196;;;24.11;47.62
70198;BME280;57582;-34.876;138.628;2024-01-16T15:47:09;100201;;;23.81;47.87
70198;BME280;57582;-34.876;138.628;2024-01-16T15:50:09;100217;;;23.17;48.65
70198;BME280;57582;-34.876;138.628;2024-01-16T15:53:09;100201;;;22.67;50.14
70198;BME280;57582;-34.876;138.628;2024-01-16T15:56:09;100191;;;22.30;51.20
70198;BME280;57582;-34.876;138.628;2024-01-16T15:59:09;100197;;;22.25;52.20
70198;BME280;57582;-34.876;138.628;2024-01-16T16:02:09;100188;;;22.06;52.19
70198;BME280;57582;-34.876;138.628;2024-01-16T16:05:11;100186;;;22.12;52.62
70198;BME280;57582;-34.876;138.628;2024-01-16T16:08:09;100175;;;21.88;52.89
70198;BME280;57582;-34.876;138.628;2024-01-16T16:11:09;100182;;;21.53;53.50
70198;BME280;57582;-34.876;138.628;2024-01-16T16:14:09;100195;;;21.42;53.00
70198;BME280;57582;-34.876;138.628;2024-01-16T16:17:11;100188;;;21.26;53.03
70198;BME280;57582;-34.876;138.628;2024-01-16T16:20:09;100172;;;21.07;53.38
70198;BME280;57582;-34.876;138.628;2024-01-16T16:23:09;100169;;;21.18;53.75
70198;BME280;57582;-34.876;138.628;2024-01-16T16:26:11;100171;;;21.32;53.17
70198;BME280;57582;-34.876;138.628;2024-01-16T16:29:12;100168;;;21.50;53.66
70198;BME280;57582;-34.876;138.628;2024-01-16T16:32:09;100157;;;21.66;53.34
70198;BME280;57582;-34.876;138.628;2024-01-16T16:35:09;100159;;;21.73;52.92
70198;BME280;57582;-34.876;138.628;2024-01-16T16:38:09;100154;;;21.82;52.22
70198;BME280;57582;-34.876;138.628;2024-01-16T16:41:11;100153;;;21.88;52.23
70198;BME280;57582;-34.876;138.628;2024-01-16T16:44:09;100160;;;21.91;52.70
70198;BME280;57582;-34.876;138.628;2024-01-16T16:47:09;100168;;;21.94;52.33